createdAt,value
2023-01-26T00:01:21.834Z,-0.40
2023-01-26T00:03:53.900Z,-0.42
2023-01-26T00:06:26.366Z,-0.48
2023-01-26T00:08:58.672Z,-0.52
2023-01-26T00:11:31.239Z,-0.51
2023-01-26T00:14:03.765Z,-0.48
2023-01-26T00:16:35.458Z,-0.42
2023-01-26T00:19:05.940Z,-0.34
2023-01-26T00:21:37.882Z,-0.33
2023-01-26T00:24:10.140Z,-0.31
2023-01-26T00:26:41.781Z,-0.26
2023-01-26T00:29:11.883Z,-0.20
2023-01-26T00:31:43.527Z,-0.21
2023-01-26T00:34:13.717Z,-0.17
2023-01-26T00:36:46.754Z,-0.23
2023-01-26T00:39:16.956Z,-0.27
2023-01-26T00:42:09.685Z,-0.36
2023-01-26T00:44:43.205Z,-0.40
2023-01-26T00:47:15.643Z,-0.45
2023-01-26T00:49:47.687Z,-0.47
2023-01-26T00:52:19.362Z,-0.46
2023-01-26T00:54:49.428Z,-0.46
2023-01-26T00:57:21.061Z,-0.51
2023-01-26T00:59:51.193Z,-0.49
2023-01-26T01:02:22.823Z,-0.47
2023-01-26T01:04:52.993Z,-0.38
2023-01-26T01:07:24.945Z,-0.37
2023-01-26T01:09:56.550Z,-0.31
2023-01-26T01:12:26.750Z,-0.26
2023-01-26T01:14:59.737Z,-0.29
2023-01-26T01:17:31.528Z,-0.32
2023-01-26T01:20:01.619Z,-0.34
2023-01-26T01:22:33.299Z,-0.41
2023-01-26T01:25:03.460Z,-0.38
2023-01-26T01:27:35.104Z,-0.41
2023-01-26T01:30:08.038Z,-0.40
2023-01-26T01:32:40.612Z,-0.45
2023-01-26T01:35:14.029Z,-0.44
2023-01-26T01:37:45.683Z,-0.44
2023-01-26T01:40:16.142Z,-0.43
2023-01-26T01:42:51.382Z,-0.45
2023-01-26T01:45:45.453Z,-0.43
2023-01-26T01:48:21.711Z,-0.45
2023-01-26T01:50:55.714Z,-0.43
2023-01-26T01:53:33.104Z,-0.42
2023-01-26T01:56:10.988Z,-0.40
2023-01-26T01:58:44.253Z,-0.36
2023-01-26T02:01:16.291Z,-0.33
2023-01-26T02:03:51.993Z,-0.31
2023-01-26T02:06:27.493Z,-0.29
2023-01-26T02:09:00.538Z,-0.29
2023-01-26T02:11:37.297Z,-0.31
2023-01-26T02:14:12.631Z,-0.32
2023-01-26T02:16:44.269Z,-0.37
2023-01-26T02:19:20.118Z,-0.45
2023-01-26T02:21:53.865Z,-0.55
2023-01-26T02:24:30.676Z,-0.55
2023-01-26T02:27:02.438Z,-0.55
2023-01-26T02:29:35.069Z,-0.53
2023-01-26T02:32:08.587Z,-0.50
2023-01-26T02:34:40.227Z,-0.47
2023-01-26T02:37:15.766Z,-0.43
2023-01-26T02:39:54.660Z,-0.49
2023-01-26T02:42:43.371Z,-0.52
2023-01-26T02:45:18.035Z,-0.54
2023-01-26T02:47:50.325Z,-0.56
2023-01-26T02:50:22.867Z,-0.57
2023-01-26T02:52:54.464Z,-0.57
2023-01-26T02:55:28.320Z,-0.59
2023-01-26T02:58:01.962Z,-0.60
2023-01-26T03:00:37.278Z,-0.59
2023-01-26T03:03:14.892Z,-0.57
2023-01-26T03:05:46.915Z,-0.57
2023-01-26T03:08:19.035Z,-0.61
2023-01-26T03:10:50.959Z,-0.65
2023-01-26T03:13:22.744Z,-0.69
2023-01-26T03:15:54.544Z,-0.70
2023-01-26T03:18:44.937Z,-0.74
2023-01-26T03:21:35.836Z,-0.70
2023-01-26T03:24:27.891Z,-0.66
2023-01-26T03:27:28.802Z,-0.66
2023-01-26T03:30:08.888Z,-0.69
2023-01-26T03:32:41.182Z,-0.73
2023-01-26T03:35:16.128Z,-0.75
2023-01-26T03:37:54.886Z,-0.75
2023-01-26T03:41:04.819Z,-0.76
2023-01-26T03:43:54.040Z,-0.73
2023-01-26T03:46:43.145Z,-0.68
2023-01-26T03:49:34.172Z,-0.63
2023-01-26T03:52:24.089Z,-0.60
2023-01-26T03:55:13.544Z,-0.58
2023-01-26T03:57:45.155Z,-0.58
2023-01-26T04:00:18.217Z,-0.60
2023-01-26T04:03:07.725Z,-0.60
2023-01-26T04:05:57.480Z,-0.59
2023-01-26T04:08:50.508Z,-0.57
2023-01-26T04:11:22.216Z,-0.55
2023-01-26T04:14:10.153Z,-0.52
2023-01-26T04:16:59.167Z,-0.58
2023-01-26T04:19:49.156Z,-0.56
2023-01-26T04:22:22.284Z,-0.57
2023-01-26T04:24:54.307Z,-0.58
2023-01-26T04:27:26.074Z,-0.57
2023-01-26T04:29:58.935Z,-0.56
2023-01-26T04:32:30.802Z,-0.56
2023-01-26T04:35:02.656Z,-0.61
2023-01-26T04:37:36.906Z,-0.67
2023-01-26T04:40:11.869Z,-0.69
2023-01-26T04:42:52.527Z,-0.66
2023-01-26T04:45:25.244Z,-0.64
2023-01-26T04:47:57.813Z,-0.65
2023-01-26T04:50:30.744Z,-0.65
2023-01-26T04:53:00.916Z,-0.68
2023-01-26T04:55:33.628Z,-0.78
2023-01-26T04:58:05.305Z,-0.78
2023-01-26T05:00:37.226Z,-0.75
2023-01-26T05:03:10.484Z,-0.70
2023-01-26T05:05:42.963Z,-0.66
2023-01-26T05:08:14.702Z,-0.65
2023-01-26T05:10:44.887Z,-0.62
2023-01-26T05:13:26.869Z,-0.63
2023-01-26T05:16:28.024Z,-0.59
2023-01-26T05:19:10.857Z,-0.59
2023-01-26T05:21:59.652Z,-0.60
2023-01-26T05:24:31.492Z,-0.61
2023-01-26T05:27:28.547Z,-0.60
2023-01-26T05:30:04.576Z,-0.60
2023-01-26T05:32:38.928Z,-0.63
2023-01-26T05:35:11.581Z,-0.70
2023-01-26T05:37:45.456Z,-0.77
2023-01-26T05:40:18.718Z,-0.82
2023-01-26T05:42:50.451Z,-0.87
2023-01-26T05:45:29.288Z,-0.91
2023-01-26T05:48:04.181Z,-0.90
2023-01-26T05:50:36.403Z,-0.86
2023-01-26T05:53:26.715Z,-0.82
2023-01-26T05:55:58.803Z,-0.77
2023-01-26T05:58:32.167Z,-0.73
2023-01-26T06:01:05.900Z,-0.68
2023-01-26T06:03:41.927Z,-0.68
2023-01-26T06:06:12.164Z,-0.62
2023-01-26T06:08:53.463Z,-0.62
2023-01-26T06:11:54.254Z,-0.58
2023-01-26T06:14:30.527Z,-0.55
2023-01-26T06:17:02.367Z,-0.52
2023-01-26T06:19:34.234Z,-0.49
2023-01-26T06:22:08.525Z,-0.47
2023-01-26T06:24:41.419Z,-0.45
2023-01-26T06:27:13.374Z,-0.41
2023-01-26T06:29:45.767Z,-0.44
2023-01-26T06:32:18.189Z,-0.44
2023-01-26T06:34:53.861Z,-0.42
2023-01-26T06:37:26.503Z,-0.42
2023-01-26T06:39:58.403Z,-0.40
2023-01-26T06:42:28.561Z,-0.38
2023-01-26T06:45:00.228Z,-0.40
2023-01-26T06:47:30.378Z,-0.38
2023-01-26T06:50:02.174Z,-0.39
2023-01-26T06:52:36.759Z,-0.38
2023-01-26T06:55:21.397Z,-0.37
2023-01-26T06:57:58.660Z,-0.39
2023-01-26T07:01:01.105Z,-0.44
2023-01-26T07:03:38.755Z,-0.50
2023-01-26T07:06:12.220Z,-0.58
2023-01-26T07:08:44.396Z,-0.65
2023-01-26T07:11:16.875Z,-0.72
2023-01-26T07:13:48.810Z,-0.77
2023-01-26T07:16:20.897Z,-0.81
2023-01-26T07:18:53.621Z,-0.81
2023-01-26T07:21:25.392Z,-0.82
2023-01-26T07:23:57.919Z,-0.82
2023-01-26T07:26:29.667Z,-0.83
2023-01-26T07:29:01.398Z,-0.85
2023-01-26T07:31:31.559Z,-0.87
2023-01-26T07:34:03.203Z,-0.92
2023-01-26T07:36:33.355Z,-0.91
2023-01-26T07:39:08.185Z,-0.95
2023-01-26T07:41:40.253Z,-0.94
2023-01-26T07:44:30.894Z,-0.92
2023-01-26T07:47:01.016Z,-0.91
2023-01-26T07:49:33.738Z,-0.95
2023-01-26T07:52:05.989Z,-0.92
2023-01-26T07:54:38.221Z,-0.91
2023-01-26T07:57:09.867Z,-0.88
2023-01-26T07:59:39.999Z,-0.86
2023-01-26T08:02:13.150Z,-0.90
2023-01-26T08:04:45.098Z,-0.87
2023-01-26T08:07:16.799Z,-0.83
2023-01-26T08:09:46.952Z,-0.80
2023-01-26T08:12:18.588Z,-0.84
2023-01-26T08:14:48.725Z,-0.84
2023-01-26T08:17:20.442Z,-0.88
2023-01-26T08:19:50.575Z,-0.83
2023-01-26T08:22:22.362Z,-0.83
2023-01-26T08:24:52.813Z,-0.78
2023-01-26T08:27:24.457Z,-0.76
2023-01-26T08:29:54.831Z,-0.69
2023-01-26T08:32:26.537Z,-0.68
2023-01-26T08:34:56.734Z,-0.64
2023-01-26T08:37:28.344Z,-0.70
2023-01-26T08:39:58.440Z,-0.70
2023-01-26T08:42:30.143Z,-0.77
2023-01-26T08:45:01.841Z,-0.77
2023-01-26T08:47:31.980Z,-0.76
2023-01-26T08:50:03.954Z,-0.79
2023-01-26T08:52:35.858Z,-0.76
2023-01-26T08:55:06.524Z,-0.74
2023-01-26T08:57:38.192Z,-0.74
2023-01-26T09:00:09.508Z,-0.66
2023-01-26T09:02:41.493Z,-0.65
2023-01-26T09:05:13.492Z,-0.59
2023-01-26T09:07:45.547Z,-0.55
2023-01-26T09:10:17.519Z,-0.50
2023-01-26T09:12:49.213Z,-0.45
2023-01-26T09:15:19.505Z,-0.44
2023-01-26T09:17:52.095Z,-0.48
2023-01-26T09:20:24.197Z,-0.46
2023-01-26T09:22:56.032Z,-0.44
2023-01-26T09:25:26.149Z,-0.42
2023-01-26T09:27:58.005Z,-0.42
2023-01-26T09:30:29.911Z,-0.38
2023-01-26T09:33:02.774Z,-0.32
2023-01-26T09:35:34.495Z,-0.28
2023-01-26T09:38:04.678Z,-0.29
2023-01-26T09:40:46.993Z,-0.32
2023-01-26T09:43:29.733Z,-0.28
2023-01-26T09:46:13.497Z,-0.24
2023-01-26T09:48:55.236Z,-0.17
2023-01-26T09:51:32.220Z,-0.12
2023-01-26T09:54:12.355Z,-0.04
2023-01-26T09:56:44.181Z,0.05
2023-01-26T09:59:35.419Z,0.12
2023-01-26T10:02:24.080Z,0.19
2023-01-26T10:05:01.721Z,0.22
2023-01-26T10:07:33.545Z,0.22
2023-01-26T10:10:05.694Z,0.23
2023-01-26T10:12:39.404Z,0.26
2023-01-26T10:15:19.901Z,0.27
2023-01-26T10:17:54.967Z,0.28
2023-01-26T10:20:32.135Z,0.30
2023-01-26T10:23:06.606Z,0.36
2023-01-26T10:25:40.359Z,0.41
2023-01-26T10:28:17.526Z,0.43
2023-01-26T10:30:51.267Z,0.40
2023-01-26T10:33:27.530Z,0.35
2023-01-26T10:35:59.307Z,0.34
2023-01-26T10:38:43.057Z,0.34
2023-01-26T10:41:29.697Z,0.29
2023-01-26T10:44:03.617Z,0.30
2023-01-26T10:46:38.003Z,0.29
2023-01-26T10:49:18.378Z,0.28
2023-01-26T10:52:07.920Z,0.30
2023-01-26T10:54:39.652Z,0.32
2023-01-26T10:57:19.453Z,0.34
2023-01-26T10:59:57.184Z,0.33
2023-01-26T11:02:31.243Z,0.28
2023-01-26T11:05:19.450Z,0.24
2023-01-26T11:07:55.168Z,0.25
2023-01-26T11:10:31.544Z,0.29
2023-01-26T11:13:14.074Z,0.34
2023-01-26T11:15:48.537Z,0.35
2023-01-26T11:18:32.171Z,0.34
2023-01-26T11:21:08.530Z,0.34
2023-01-26T11:24:01.504Z,0.33
2023-01-26T11:26:55.928Z,0.32
2023-01-26T11:29:44.834Z,0.32
2023-01-26T11:32:23.730Z,0.35
2023-01-26T11:35:09.393Z,0.36
2023-01-26T11:37:47.183Z,0.38
2023-01-26T11:40:33.729Z,0.41
2023-01-26T11:43:28.801Z,0.37
2023-01-26T11:46:23.530Z,0.36
2023-01-26T11:49:13.299Z,0.39
2023-01-26T11:51:55.756Z,0.40
2023-01-26T11:54:43.097Z,0.41
2023-01-26T11:57:27.139Z,0.39
2023-01-26T12:00:03.863Z,0.40
2023-01-26T12:02:48.721Z,0.43
2023-01-26T12:05:26.122Z,0.45
2023-01-26T12:08:03.104Z,0.48
2023-01-26T12:10:40.521Z,0.49
2023-01-26T12:13:24.264Z,0.52
2023-01-26T12:16:01.698Z,0.57
2023-01-26T12:18:52.960Z,0.62
2023-01-26T12:21:35.549Z,0.67
2023-01-26T12:24:39.260Z,0.75
2023-01-26T12:27:10.914Z,0.83
2023-01-26T12:29:50.621Z,0.87
2023-01-26T12:32:22.724Z,0.90
2023-01-26T12:34:54.475Z,0.94
2023-01-26T12:37:32.265Z,1.00
2023-01-26T12:40:15.558Z,1.02
2023-01-26T12:42:50.927Z,1.08
2023-01-26T12:45:28.359Z,1.13
2023-01-26T12:48:11.468Z,1.20
2023-01-26T12:50:48.781Z,1.25
2023-01-26T12:53:30.154Z,1.27
2023-01-26T12:56:12.702Z,1.26
2023-01-26T12:58:47.558Z,1.27
2023-01-26T13:01:22.435Z,1.29
2023-01-26T13:03:57.900Z,1.32
2023-01-26T13:06:31.000Z,1.31
2023-01-26T13:09:20.589Z,1.26
2023-01-26T13:11:56.943Z,1.19
2023-01-26T13:14:32.574Z,1.19
2023-01-26T13:17:38.034Z,1.17
2023-01-26T13:20:26.928Z,1.19
2023-01-26T13:22:58.686Z,1.22
2023-01-26T13:25:32.312Z,1.22
2023-01-26T13:28:05.320Z,1.10
2023-01-26T13:30:46.104Z,1.04
2023-01-26T13:33:22.209Z,1.02
2023-01-26T13:35:55.499Z,0.99
2023-01-26T13:38:35.115Z,0.95
2023-01-26T13:41:10.966Z,0.94
2023-01-26T13:43:47.370Z,0.92
2023-01-26T13:46:25.716Z,0.89
2023-01-26T13:48:58.052Z,0.85
2023-01-26T13:51:32.151Z,0.82
2023-01-26T13:54:07.653Z,0.81
2023-01-26T13:56:41.095Z,0.80
2023-01-26T13:59:15.154Z,0.83
2023-01-26T14:01:49.650Z,0.87
2023-01-26T14:04:23.800Z,0.91
2023-01-26T14:06:59.815Z,0.92
2023-01-26T14:09:35.471Z,0.93
2023-01-26T14:12:17.795Z,0.92
2023-01-26T14:14:51.629Z,0.90
2023-01-26T14:17:30.005Z,0.85
2023-01-26T14:20:03.595Z,0.80
2023-01-26T14:22:35.284Z,0.77
2023-01-26T14:25:10.601Z,0.76
2023-01-26T14:27:43.390Z,0.70
2023-01-26T14:30:31.569Z,0.71
2023-01-26T14:33:08.797Z,0.75
2023-01-26T14:35:40.917Z,0.79
2023-01-26T14:38:19.952Z,0.79
2023-01-26T14:40:53.133Z,0.77
2023-01-26T14:43:25.578Z,0.72
2023-01-26T14:46:01.160Z,0.67
2023-01-26T14:48:38.291Z,0.62
2023-01-26T14:51:18.579Z,0.59
2023-01-26T14:53:56.506Z,0.53
2023-01-26T14:56:35.051Z,0.49
2023-01-26T14:59:09.409Z,0.45
2023-01-26T15:01:41.219Z,0.41
2023-01-26T15:04:26.063Z,0.35
2023-01-26T15:06:58.059Z,0.29
2023-01-26T15:09:34.987Z,0.26
2023-01-26T15:12:18.024Z,0.20
2023-01-26T15:14:52.691Z,0.14
2023-01-26T15:17:37.008Z,0.07
2023-01-26T15:20:41.331Z,0.02
2023-01-26T15:23:33.574Z,-0.03
2023-01-26T15:26:10.059Z,-0.07
2023-01-26T15:28:42.040Z,-0.10
2023-01-26T15:31:24.127Z,-0.15
2023-01-26T15:33:58.638Z,-0.19
2023-01-26T15:36:36.124Z,-0.23
2023-01-26T15:39:18.211Z,-0.26
2023-01-26T15:42:02.646Z,-0.32
2023-01-26T15:44:34.345Z,-0.35
2023-01-26T15:47:04.470Z,-0.38
2023-01-26T15:49:36.153Z,-0.40
2023-01-26T15:52:10.051Z,-0.40
2023-01-26T15:54:41.764Z,-0.45
2023-01-26T15:57:12.170Z,-0.42
2023-01-26T15:59:43.802Z,-0.46
2023-01-26T16:02:16.165Z,-0.44
2023-01-26T16:04:48.044Z,-0.48
2023-01-26T16:07:20.869Z,-0.48
2023-01-26T16:09:52.570Z,-0.48
2023-01-26T16:12:32.146Z,-0.47
2023-01-26T16:15:06.341Z,-0.52
2023-01-26T16:17:37.964Z,-0.51
2023-01-26T16:20:10.431Z,-0.48
2023-01-26T16:22:42.034Z,-0.51
2023-01-26T16:25:23.829Z,-0.50
2023-01-26T16:27:54.309Z,-0.48
2023-01-26T16:30:26.826Z,-0.50
2023-01-26T16:32:58.503Z,-0.47
2023-01-26T16:35:29.550Z,-0.46
2023-01-26T16:38:01.617Z,-0.50
2023-01-26T16:40:33.700Z,-0.52
2023-01-26T16:43:05.371Z,-0.51
2023-01-26T16:45:35.496Z,-0.52
2023-01-26T16:48:14.261Z,-0.54
2023-01-26T16:50:46.935Z,-0.49
2023-01-26T16:53:26.465Z,-0.44
2023-01-26T16:55:58.422Z,-0.42
2023-01-26T16:58:33.161Z,-0.41
2023-01-26T17:01:05.854Z,-0.41
2023-01-26T17:03:37.539Z,-0.41
2023-01-26T17:06:07.824Z,-0.40
2023-01-26T17:08:39.529Z,-0.43
2023-01-26T17:11:13.812Z,-0.42
2023-01-26T17:13:45.458Z,-0.44
2023-01-26T17:16:17.139Z,-0.42
2023-01-26T17:18:49.725Z,-0.45
2023-01-26T17:21:22.348Z,-0.45
2023-01-26T17:23:57.663Z,-0.44
2023-01-26T17:26:29.393Z,-0.41
2023-01-26T17:28:59.506Z,-0.39
2023-01-26T17:31:31.671Z,-0.41
2023-01-26T17:34:03.357Z,-0.39
2023-01-26T17:36:33.535Z,-0.39
2023-01-26T17:39:05.201Z,-0.43
2023-01-26T17:41:35.301Z,-0.42
2023-01-26T17:44:06.887Z,-0.45
2023-01-26T17:46:38.495Z,-0.40
2023-01-26T17:49:10.147Z,-0.37
2023-01-26T17:51:40.327Z,-0.37
2023-01-26T17:54:11.991Z,-0.42
2023-01-26T17:56:43.949Z,-0.42
2023-01-26T17:59:15.650Z,-0.43
2023-01-26T18:01:47.365Z,-0.43
2023-01-26T18:04:19.247Z,-0.43
2023-01-26T18:06:50.901Z,-0.46
2023-01-26T18:09:21.025Z,-0.51
2023-01-26T18:11:52.655Z,-0.60
2023-01-26T18:14:22.858Z,-0.63
2023-01-26T18:16:54.562Z,-0.69
2023-01-26T18:19:26.714Z,-0.70
2023-01-26T18:21:58.428Z,-0.71
2023-01-26T18:24:28.593Z,-0.73
2023-01-26T18:27:00.295Z,-0.77
2023-01-26T18:29:30.471Z,-0.74
2023-01-26T18:32:02.171Z,-0.77
2023-01-26T18:34:34.000Z,-0.75
2023-01-26T18:37:05.625Z,-0.72
2023-01-26T18:39:35.761Z,-0.71
2023-01-26T18:42:07.454Z,-0.71
2023-01-26T18:44:37.639Z,-0.69
2023-01-26T18:47:09.264Z,-0.75
2023-01-26T18:49:39.380Z,-0.73
2023-01-26T18:52:11.138Z,-0.75
2023-01-26T18:54:42.834Z,-0.72
2023-01-26T18:57:13.182Z,-0.68
2023-01-26T18:59:44.850Z,-0.71
2023-01-26T19:02:15.364Z,-0.69
2023-01-26T19:04:47.319Z,-0.75
2023-01-26T19:07:19.109Z,-0.75
2023-01-26T19:09:50.773Z,-0.75
2023-01-26T19:12:21.092Z,-0.76
2023-01-26T19:14:52.780Z,-0.81
2023-01-26T19:17:22.938Z,-0.80
2023-01-26T19:19:55.125Z,-0.85
2023-01-26T19:22:26.846Z,-0.84
2023-01-26T19:24:57.182Z,-0.83
2023-01-26T19:27:31.001Z,-0.88
2023-01-26T19:30:02.717Z,-0.88
2023-01-26T19:32:32.997Z,-0.89
2023-01-26T19:35:04.819Z,-0.95
2023-01-26T19:37:36.551Z,-0.95
2023-01-26T19:40:13.711Z,-0.92
2023-01-26T19:42:45.378Z,-0.89
2023-01-26T19:45:15.908Z,-0.87
2023-01-26T19:47:47.987Z,-0.91
2023-01-26T19:50:21.724Z,-0.90
2023-01-26T19:52:53.571Z,-0.92
2023-01-26T19:55:25.319Z,-0.93
2023-01-26T19:57:57.563Z,-0.95
2023-01-26T20:00:29.435Z,-0.95
2023-01-26T20:03:01.066Z,-0.93
2023-01-26T20:05:31.284Z,-0.91
2023-01-26T20:08:02.955Z,-0.92
2023-01-26T20:10:33.338Z,-0.90
2023-01-26T20:13:04.995Z,-0.94
2023-01-26T20:15:35.990Z,-0.90
2023-01-26T20:18:08.023Z,-0.93
2023-01-26T20:20:40.148Z,-0.87
2023-01-26T20:23:11.918Z,-0.82
2023-01-26T20:25:42.605Z,-0.76
2023-01-26T20:28:15.373Z,-0.78
2023-01-26T20:30:48.962Z,-0.74
2023-01-26T20:33:21.012Z,-0.72
2023-01-26T20:35:52.704Z,-0.69
2023-01-26T20:38:23.159Z,-0.67
2023-01-26T20:40:54.871Z,-0.67
2023-01-26T20:43:25.049Z,-0.59
2023-01-26T20:45:56.764Z,-0.58
2023-01-26T20:48:28.608Z,-0.53
2023-01-26T20:50:58.935Z,-0.48
2023-01-26T20:53:31.700Z,-0.50
2023-01-26T20:56:03.380Z,-0.46
2023-01-26T20:58:35.601Z,-0.44
2023-01-26T21:01:09.006Z,-0.44
2023-01-26T21:03:41.988Z,-0.47
2023-01-26T21:06:16.139Z,-0.49
2023-01-26T21:08:49.612Z,-0.50
2023-01-26T21:11:22.183Z,-0.52
2023-01-26T21:13:55.597Z,-0.52
2023-01-26T21:16:27.647Z,-0.54
2023-01-26T21:18:59.510Z,-0.55
2023-01-26T21:21:31.218Z,-0.54
2023-01-26T21:24:01.373Z,-0.52
2023-01-26T21:26:34.658Z,-0.55
2023-01-26T21:29:07.567Z,-0.53
2023-01-26T21:31:40.030Z,-0.51
2023-01-26T21:34:12.383Z,-0.49
2023-01-26T21:36:44.080Z,-0.45
2023-01-26T21:39:15.273Z,-0.40
2023-01-26T21:41:59.542Z,-0.43
2023-01-26T21:44:32.593Z,-0.44
2023-01-26T21:47:05.039Z,-0.45
2023-01-26T21:49:36.703Z,-0.45
2023-01-26T21:52:26.824Z,-0.43
2023-01-26T21:54:58.946Z,-0.48
2023-01-26T21:57:48.105Z,-0.49
2023-01-26T22:00:23.532Z,-0.50
2023-01-26T22:02:55.786Z,-0.51
2023-01-26T22:05:27.495Z,-0.50
2023-01-26T22:07:57.642Z,-0.51
2023-01-26T22:10:29.299Z,-0.54
2023-01-26T22:12:59.605Z,-0.51
2023-01-26T22:15:35.242Z,-0.54
2023-01-26T22:18:06.933Z,-0.52
2023-01-26T22:20:37.151Z,-0.50
2023-01-26T22:23:08.894Z,-0.54
2023-01-26T22:25:39.042Z,-0.50
2023-01-26T22:28:10.722Z,-0.51
2023-01-26T22:30:41.159Z,-0.47
2023-01-26T22:33:12.865Z,-0.47
2023-01-26T22:35:42.945Z,-0.43
2023-01-26T22:38:14.556Z,-0.47
2023-01-26T22:40:47.255Z,-0.46
2023-01-26T22:43:18.913Z,-0.45
2023-01-26T22:45:49.460Z,-0.44
2023-01-26T22:48:21.456Z,-0.49
2023-01-26T22:50:53.228Z,-0.48
2023-01-26T22:53:23.364Z,-0.48
2023-01-26T22:55:55.023Z,-0.50
2023-01-26T22:58:25.222Z,-0.50
2023-01-26T23:01:04.088Z,-0.56
2023-01-26T23:03:36.101Z,-0.54
2023-01-26T23:06:09.336Z,-0.53
2023-01-26T23:08:41.426Z,-0.53
2023-01-26T23:11:15.708Z,-0.53
2023-01-26T23:13:49.452Z,-0.56
2023-01-26T23:16:23.329Z,-0.57
2023-01-26T23:18:56.666Z,-0.59
2023-01-26T23:21:29.523Z,-0.65
2023-01-26T23:24:01.266Z,-0.69
2023-01-26T23:26:32.947Z,-0.71
2023-01-26T23:29:03.058Z,-0.70
2023-01-26T23:31:34.810Z,-0.76
2023-01-26T23:34:06.491Z,-0.73
2023-01-26T23:36:36.634Z,-0.70
2023-01-26T23:39:08.282Z,-0.75
2023-01-26T23:41:38.453Z,-0.77
2023-01-26T23:44:11.676Z,-0.84
2023-01-26T23:46:44.121Z,-0.84
2023-01-26T23:49:15.799Z,-0.86
2023-01-26T23:51:45.931Z,-0.87
2023-01-26T23:54:17.680Z,-0.96
2023-01-26T23:56:49.425Z,-0.99
2023-01-26T23:59:21.471Z,-1.02
